sensor_id;sensor_type;location;lat;lon;timestamp;P1;durP1;ratioP1;P2;durP2;ratioP2
5690;SDS011;2870;42.680;23.364;2023-07-13T00:00:27;12.00;;;6.33;;
5690;SDS011;2870;42.680;23.364;2023-07-13T00:02:54;13.33;;;7.20;;
5690;SDS011;2870;42.680;23.364;2023-07-13T00:05:21;15.33;;;6.20;;
5690;SDS011;2870;42.680;23.364;2023-07-13T00:07:49;11.60;;;5.80;;
5690;SDS011;2870;42.680;23.364;2023-07-13T00:10:18;16.20;;;6.10;;
5690;SDS011;2870;42.680;23.364;2023-07-13T00:12:45;11.23;;;6.00;;
5690;SDS011;2870;42.680;23.364;2023-07-13T00:15:13;13.40;;;6.33;;
5690;SDS011;2870;42.680;23.364;2023-07-13T00:17:41;13.20;;;6.70;;
5690;SDS011;2870;42.680;23.364;2023-07-13T00:20:09;12.93;;;6.63;;
5690;SDS011;2870;42.680;23.364;2023-07-13T00:22:37;10.77;;;6.60;;
5690;SDS011;2870;42.680;23.364;2023-07-13T00:25:05;10.97;;;5.70;;
5690;SDS011;2870;42.680;23.364;2023-07-13T00:27:33;10.90;;;6.43;;
5690;SDS011;2870;42.680;23.364;2023-07-13T00:30:00;12.83;;;6.70;;
5690;SDS011;2870;42.680;23.364;2023-07-13T00:32:28;13.33;;;7.20;;
5690;SDS011;2870;42.680;23.364;2023-07-13T00:34:55;11.63;;;6.67;;
5690;SDS011;2870;42.680;23.364;2023-07-13T00:37:23;10.63;;;6.30;;
5690;SDS011;2870;42.680;23.364;2023-07-13T00:39:50;12.23;;;8.00;;
5690;SDS011;2870;42.680;23.364;2023-07-13T00:42:16;14.00;;;6.80;;
5690;SDS011;2870;42.680;23.364;2023-07-13T00:47:52;11.30;;;7.03;;
5690;SDS011;2870;42.680;23.364;2023-07-13T00:50:20;11.90;;;6.73;;
5690;SDS011;2870;42.680;23.364;2023-07-13T00:52:50;12.67;;;7.67;;
5690;SDS011;2870;42.680;23.364;2023-07-13T00:55:20;14.07;;;6.70;;
5690;SDS011;2870;42.680;23.364;2023-07-13T00:57:48;13.13;;;6.87;;
5690;SDS011;2870;42.680;23.364;2023-07-13T01:00:18;17.57;;;7.27;;
5690;SDS011;2870;42.680;23.364;2023-07-13T01:02:48;20.30;;;7.40;;
5690;SDS011;2870;42.680;23.364;2023-07-13T01:05:16;11.80;;;6.60;;
5690;SDS011;2870;42.680;23.364;2023-07-13T01:07:45;9.93;;;6.93;;
5690;SDS011;2870;42.680;23.364;2023-07-13T01:10:14;12.83;;;7.07;;
5690;SDS011;2870;42.680;23.364;2023-07-13T01:12:40;13.80;;;7.10;;
5690;SDS011;2870;42.680;23.364;2023-07-13T01:18:04;12.57;;;6.50;;
5690;SDS011;2870;42.680;23.364;2023-07-13T01:20:32;12.57;;;7.27;;
5690;SDS011;2870;42.680;23.364;2023-07-13T01:23:04;15.97;;;6.83;;
5690;SDS011;2870;42.680;23.364;2023-07-13T01:25:32;13.57;;;7.57;;
5690;SDS011;2870;42.680;23.364;2023-07-13T01:27:59;11.23;;;7.40;;
5690;SDS011;2870;42.680;23.364;2023-07-13T01:30:26;11.30;;;7.60;;
5690;SDS011;2870;42.680;23.364;2023-07-13T01:32:53;12.27;;;7.50;;
5690;SDS011;2870;42.680;23.364;2023-07-13T01:35:20;12.80;;;7.80;;
5690;SDS011;2870;42.680;23.364;2023-07-13T01:37:47;12.33;;;7.50;;
5690;SDS011;2870;42.680;23.364;2023-07-13T01:40:15;16.13;;;7.87;;
5690;SDS011;2870;42.680;23.364;2023-07-13T01:42:42;14.97;;;7.53;;
5690;SDS011;2870;42.680;23.364;2023-07-13T01:45:09;11.00;;;7.63;;
5690;SDS011;2870;42.680;23.364;2023-07-13T01:47:36;12.50;;;7.30;;
5690;SDS011;2870;42.680;23.364;2023-07-13T01:50:03;12.47;;;7.57;;
5690;SDS011;2870;42.680;23.364;2023-07-13T01:52:31;14.10;;;7.00;;
5690;SDS011;2870;42.680;23.364;2023-07-13T01:54:57;13.80;;;7.30;;
5690;SDS011;2870;42.680;23.364;2023-07-13T01:57:25;10.50;;;6.73;;
5690;SDS011;2870;42.680;23.364;2023-07-13T01:59:52;12.10;;;6.90;;
5690;SDS011;2870;42.680;23.364;2023-07-13T02:05:05;11.97;;;6.50;;
5690;SDS011;2870;42.680;23.364;2023-07-13T02:07:32;11.73;;;6.73;;
5690;SDS011;2870;42.680;23.364;2023-07-13T02:09:59;13.47;;;6.23;;
5690;SDS011;2870;42.680;23.364;2023-07-13T02:12:27;28.20;;;7.27;;
5690;SDS011;2870;42.680;23.364;2023-07-13T02:14:54;15.20;;;6.70;;
5690;SDS011;2870;42.680;23.364;2023-07-13T02:17:21;13.43;;;7.67;;
5690;SDS011;2870;42.680;23.364;2023-07-13T02:19:47;15.30;;;7.20;;
5690;SDS011;2870;42.680;23.364;2023-07-13T02:22:15;15.73;;;7.13;;
5690;SDS011;2870;42.680;23.364;2023-07-13T02:24:41;18.00;;;6.87;;
5690;SDS011;2870;42.680;23.364;2023-07-13T02:27:08;15.30;;;7.43;;
5690;SDS011;2870;42.680;23.364;2023-07-13T02:29:36;14.70;;;7.53;;
5690;SDS011;2870;42.680;23.364;2023-07-13T02:32:04;10.30;;;6.93;;
5690;SDS011;2870;42.680;23.364;2023-07-13T02:34:31;14.17;;;6.90;;
5690;SDS011;2870;42.680;23.364;2023-07-13T02:36:58;19.83;;;7.07;;
5690;SDS011;2870;42.680;23.364;2023-07-13T02:39:25;12.23;;;7.40;;
5690;SDS011;2870;42.680;23.364;2023-07-13T02:41:52;9.90;;;7.13;;
5690;SDS011;2870;42.680;23.364;2023-07-13T02:44:18;11.30;;;6.40;;
5690;SDS011;2870;42.680;23.364;2023-07-13T02:46:46;11.63;;;7.23;;
5690;SDS011;2870;42.680;23.364;2023-07-13T02:49:13;13.50;;;8.00;;
5690;SDS011;2870;42.680;23.364;2023-07-13T02:51:40;15.33;;;8.00;;
5690;SDS011;2870;42.680;23.364;2023-07-13T02:54:07;10.20;;;6.93;;
5690;SDS011;2870;42.680;23.364;2023-07-13T02:56:33;12.03;;;7.53;;
5690;SDS011;2870;42.680;23.364;2023-07-13T02:59:00;13.47;;;7.87;;
5690;SDS011;2870;42.680;23.364;2023-07-13T03:01:27;16.57;;;7.50;;
5690;SDS011;2870;42.680;23.364;2023-07-13T03:03:56;16.97;;;8.20;;
5690;SDS011;2870;42.680;23.364;2023-07-13T03:06:23;12.33;;;7.80;;
5690;SDS011;2870;42.680;23.364;2023-07-13T03:08:49;11.73;;;7.70;;
5690;SDS011;2870;42.680;23.364;2023-07-13T03:11:18;22.90;;;10.00;;
5690;SDS011;2870;42.680;23.364;2023-07-13T03:13:46;24.63;;;10.50;;
5690;SDS011;2870;42.680;23.364;2023-07-13T03:16:14;17.83;;;9.97;;
5690;SDS011;2870;42.680;23.364;2023-07-13T03:18:42;17.00;;;10.30;;
5690;SDS011;2870;42.680;23.364;2023-07-13T03:21:11;23.80;;;10.97;;
5690;SDS011;2870;42.680;23.364;2023-07-13T03:23:38;15.53;;;10.43;;
5690;SDS011;2870;42.680;23.364;2023-07-13T03:26:05;24.90;;;10.80;;
5690;SDS011;2870;42.680;23.364;2023-07-13T03:28:34;15.63;;;9.90;;
5690;SDS011;2870;42.680;23.364;2023-07-13T03:31:02;20.80;;;11.57;;
5690;SDS011;2870;42.680;23.364;2023-07-13T03:33:30;17.83;;;11.60;;
5690;SDS011;2870;42.680;23.364;2023-07-13T03:35:58;16.07;;;10.03;;
5690;SDS011;2870;42.680;23.364;2023-07-13T03:38:26;19.77;;;11.83;;
5690;SDS011;2870;42.680;23.364;2023-07-13T03:40:53;28.10;;;11.23;;
5690;SDS011;2870;42.680;23.364;2023-07-13T03:43:20;19.03;;;11.67;;
5690;SDS011;2870;42.680;23.364;2023-07-13T03:45:47;18.50;;;11.67;;
5690;SDS011;2870;42.680;23.364;2023-07-13T03:48:14;14.93;;;10.97;;
5690;SDS011;2870;42.680;23.364;2023-07-13T03:50:41;19.10;;;12.17;;
5690;SDS011;2870;42.680;23.364;2023-07-13T03:53:08;19.23;;;11.90;;
5690;SDS011;2870;42.680;23.364;2023-07-13T03:55:37;14.97;;;10.97;;
5690;SDS011;2870;42.680;23.364;2023-07-13T04:00:51;16.00;;;10.83;;
5690;SDS011;2870;42.680;23.364;2023-07-13T04:03:18;23.50;;;12.20;;
5690;SDS011;2870;42.680;23.364;2023-07-13T04:05:44;16.10;;;11.17;;
5690;SDS011;2870;42.680;23.364;2023-07-13T04:08:11;20.50;;;12.53;;
5690;SDS011;2870;42.680;23.364;2023-07-13T04:10:39;18.20;;;11.73;;
5690;SDS011;2870;42.680;23.364;2023-07-13T04:13:06;18.47;;;11.00;;
5690;SDS011;2870;42.680;23.364;2023-07-13T04:15:33;20.13;;;11.60;;
5690;SDS011;2870;42.680;23.364;2023-07-13T04:18:01;18.40;;;11.20;;
5690;SDS011;2870;42.680;23.364;2023-07-13T04:20:28;23.53;;;12.00;;
5690;SDS011;2870;42.680;23.364;2023-07-13T04:22:55;26.60;;;12.60;;
5690;SDS011;2870;42.680;23.364;2023-07-13T04:25:22;18.27;;;12.30;;
5690;SDS011;2870;42.680;23.364;2023-07-13T04:27:50;19.17;;;12.63;;
5690;SDS011;2870;42.680;23.364;2023-07-13T04:30:18;27.23;;;13.27;;
5690;SDS011;2870;42.680;23.364;2023-07-13T04:32:45;18.40;;;13.83;;
5690;SDS011;2870;42.680;23.364;2023-07-13T04:35:12;20.30;;;13.53;;
5690;SDS011;2870;42.680;23.364;2023-07-13T04:37:39;21.57;;;13.63;;
5690;SDS011;2870;42.680;23.364;2023-07-13T04:40:06;21.60;;;14.10;;
5690;SDS011;2870;42.680;23.364;2023-07-13T04:42:36;34.33;;;14.10;;
5690;SDS011;2870;42.680;23.364;2023-07-13T04:45:05;27.80;;;12.33;;
5690;SDS011;2870;42.680;23.364;2023-07-13T04:47:33;22.17;;;14.60;;
5690;SDS011;2870;42.680;23.364;2023-07-13T04:50:00;21.47;;;14.53;;
5690;SDS011;2870;42.680;23.364;2023-07-13T04:52:27;25.50;;;12.83;;
5690;SDS011;2870;42.680;23.364;2023-07-13T04:54:54;18.87;;;11.90;;
5690;SDS011;2870;42.680;23.364;2023-07-13T04:57:21;20.20;;;12.67;;
5690;SDS011;2870;42.680;23.364;2023-07-13T04:59:48;19.80;;;12.30;;
5690;SDS011;2870;42.680;23.364;2023-07-13T05:02:16;23.03;;;12.50;;
5690;SDS011;2870;42.680;23.364;2023-07-13T05:04:45;22.70;;;13.20;;
5690;SDS011;2870;42.680;23.364;2023-07-13T05:07:12;16.43;;;11.97;;
5690;SDS011;2870;42.680;23.364;2023-07-13T05:09:39;18.00;;;12.77;;
5690;SDS011;2870;42.680;23.364;2023-07-13T05:12:07;22.30;;;14.13;;
5690;SDS011;2870;42.680;23.364;2023-07-13T05:14:35;18.90;;;13.10;;
5690;SDS011;2870;42.680;23.364;2023-07-13T05:17:02;20.20;;;12.90;;
5690;SDS011;2870;42.680;23.364;2023-07-13T05:19:30;17.40;;;13.13;;
5690;SDS011;2870;42.680;23.364;2023-07-13T05:21:57;19.17;;;12.70;;
5690;SDS011;2870;42.680;23.364;2023-07-13T05:24:24;24.40;;;12.50;;
5690;SDS011;2870;42.680;23.364;2023-07-13T05:26:51;22.37;;;12.60;;
5690;SDS011;2870;42.680;23.364;2023-07-13T05:29:18;24.97;;;13.63;;
5690;SDS011;2870;42.680;23.364;2023-07-13T05:31:45;35.00;;;13.43;;
5690;SDS011;2870;42.680;23.364;2023-07-13T05:34:12;17.10;;;11.57;;
5690;SDS011;2870;42.680;23.364;2023-07-13T05:36:41;24.50;;;13.53;;
5690;SDS011;2870;42.680;23.364;2023-07-13T05:39:07;20.57;;;13.10;;
5690;SDS011;2870;42.680;23.364;2023-07-13T05:41:36;29.40;;;14.70;;
5690;SDS011;2870;42.680;23.364;2023-07-13T05:44:03;21.63;;;13.37;;
5690;SDS011;2870;42.680;23.364;2023-07-13T05:46:30;23.00;;;11.73;;
5690;SDS011;2870;42.680;23.364;2023-07-13T05:48:57;19.10;;;12.53;;
5690;SDS011;2870;42.680;23.364;2023-07-13T05:51:23;23.67;;;12.20;;
5690;SDS011;2870;42.680;23.364;2023-07-13T05:53:51;22.97;;;12.20;;
5690;SDS011;2870;42.680;23.364;2023-07-13T05:56:18;27.90;;;14.87;;
5690;SDS011;2870;42.680;23.364;2023-07-13T05:58:47;23.03;;;12.17;;
5690;SDS011;2870;42.680;23.364;2023-07-13T06:01:14;21.07;;;12.13;;
5690;SDS011;2870;42.680;23.364;2023-07-13T06:03:42;21.17;;;11.63;;
5690;SDS011;2870;42.680;23.364;2023-07-13T06:06:09;26.63;;;11.20;;
5690;SDS011;2870;42.680;23.364;2023-07-13T06:08:36;24.40;;;12.70;;
5690;SDS011;2870;42.680;23.364;2023-07-13T06:11:05;16.47;;;10.43;;
5690;SDS011;2870;42.680;23.364;2023-07-13T06:13:33;27.00;;;11.30;;
5690;SDS011;2870;42.680;23.364;2023-07-13T06:16:00;24.30;;;11.27;;
5690;SDS011;2870;42.680;23.364;2023-07-13T06:18:29;20.20;;;11.33;;
5690;SDS011;2870;42.680;23.364;2023-07-13T06:20:56;20.37;;;9.50;;
5690;SDS011;2870;42.680;23.364;2023-07-13T06:23:23;15.67;;;9.60;;
5690;SDS011;2870;42.680;23.364;2023-07-13T06:25:50;23.70;;;10.10;;
5690;SDS011;2870;42.680;23.364;2023-07-13T06:28:19;24.93;;;10.47;;
5690;SDS011;2870;42.680;23.364;2023-07-13T06:30:46;24.77;;;10.17;;
5690;SDS011;2870;42.680;23.364;2023-07-13T06:33:12;24.97;;;10.33;;
5690;SDS011;2870;42.680;23.364;2023-07-13T06:35:39;28.53;;;10.83;;
5690;SDS011;2870;42.680;23.364;2023-07-13T06:38:06;22.90;;;10.63;;
5690;SDS011;2870;42.680;23.364;2023-07-13T06:40:32;19.30;;;10.03;;
5690;SDS011;2870;42.680;23.364;2023-07-13T06:42:59;17.10;;;10.10;;
5690;SDS011;2870;42.680;23.364;2023-07-13T06:45:28;16.87;;;9.90;;
5690;SDS011;2870;42.680;23.364;2023-07-13T06:47:54;20.40;;;9.70;;
5690;SDS011;2870;42.680;23.364;2023-07-13T06:50:21;13.43;;;10.00;;
5690;SDS011;2870;42.680;23.364;2023-07-13T06:52:48;17.37;;;10.83;;
5690;SDS011;2870;42.680;23.364;2023-07-13T06:55:15;19.97;;;10.07;;
5690;SDS011;2870;42.680;23.364;2023-07-13T06:57:41;15.50;;;10.30;;
5690;SDS011;2870;42.680;23.364;2023-07-13T07:00:08;21.67;;;11.37;;
5690;SDS011;2870;42.680;23.364;2023-07-13T07:02:37;18.23;;;10.00;;
5690;SDS011;2870;42.680;23.364;2023-07-13T07:05:05;17.90;;;10.67;;
5690;SDS011;2870;42.680;23.364;2023-07-13T07:07:31;28.63;;;10.10;;
5690;SDS011;2870;42.680;23.364;2023-07-13T07:09:58;26.07;;;11.37;;
5690;SDS011;2870;42.680;23.364;2023-07-13T07:12:25;17.33;;;9.90;;
5690;SDS011;2870;42.680;23.364;2023-07-13T07:14:52;19.20;;;10.10;;
5690;SDS011;2870;42.680;23.364;2023-07-13T07:17:19;18.13;;;10.43;;
5690;SDS011;2870;42.680;23.364;2023-07-13T07:19:47;24.40;;;10.63;;
5690;SDS011;2870;42.680;23.364;2023-07-13T07:22:14;29.60;;;11.27;;
5690;SDS011;2870;42.680;23.364;2023-07-13T07:24:41;20.47;;;10.60;;
5690;SDS011;2870;42.680;23.364;2023-07-13T07:27:08;17.33;;;10.40;;
5690;SDS011;2870;42.680;23.364;2023-07-13T07:29:35;15.03;;;9.40;;
5690;SDS011;2870;42.680;23.364;2023-07-13T07:32:02;16.17;;;9.90;;
5690;SDS011;2870;42.680;23.364;2023-07-13T07:34:29;28.10;;;10.20;;
5690;SDS011;2870;42.680;23.364;2023-07-13T07:36:58;18.23;;;10.97;;
5690;SDS011;2870;42.680;23.364;2023-07-13T07:39:26;22.20;;;9.83;;
5690;SDS011;2870;42.680;23.364;2023-07-13T07:41:52;15.40;;;9.47;;
5690;SDS011;2870;42.680;23.364;2023-07-13T07:44:19;22.40;;;10.20;;
5690;SDS011;2870;42.680;23.364;2023-07-13T07:46:46;15.30;;;9.37;;
5690;SDS011;2870;42.680;23.364;2023-07-13T07:49:13;21.50;;;9.87;;
5690;SDS011;2870;42.680;23.364;2023-07-13T07:51:40;15.30;;;9.00;;
5690;SDS011;2870;42.680;23.364;2023-07-13T07:54:08;31.30;;;8.97;;
5690;SDS011;2870;42.680;23.364;2023-07-13T07:56:35;14.30;;;9.13;;
5690;SDS011;2870;42.680;23.364;2023-07-13T07:59:02;18.70;;;9.40;;
5690;SDS011;2870;42.680;23.364;2023-07-13T08:01:28;18.43;;;10.47;;
5690;SDS011;2870;42.680;23.364;2023-07-13T08:03:55;15.53;;;9.13;;
5690;SDS011;2870;42.680;23.364;2023-07-13T08:06:22;20.67;;;8.87;;
5690;SDS011;2870;42.680;23.364;2023-07-13T08:08:49;15.27;;;8.90;;
5690;SDS011;2870;42.680;23.364;2023-07-13T08:11:18;17.43;;;8.13;;
5690;SDS011;2870;42.680;23.364;2023-07-13T08:13:44;17.33;;;9.33;;
5690;SDS011;2870;42.680;23.364;2023-07-13T08:16:11;13.53;;;9.27;;
5690;SDS011;2870;42.680;23.364;2023-07-13T08:18:38;19.13;;;8.60;;
5690;SDS011;2870;42.680;23.364;2023-07-13T08:21:05;18.33;;;9.60;;
5690;SDS011;2870;42.680;23.364;2023-07-13T08:23:33;24.70;;;9.03;;
5690;SDS011;2870;42.680;23.364;2023-07-13T08:26:00;16.43;;;9.33;;
5690;SDS011;2870;42.680;23.364;2023-07-13T08:28:31;18.53;;;8.20;;
5690;SDS011;2870;42.680;23.364;2023-07-13T08:31:00;15.83;;;9.10;;
5690;SDS011;2870;42.680;23.364;2023-07-13T08:33:27;21.30;;;8.63;;
5690;SDS011;2870;42.680;23.364;2023-07-13T08:35:54;14.43;;;8.30;;
5690;SDS011;2870;42.680;23.364;2023-07-13T08:38:20;18.00;;;9.10;;
5690;SDS011;2870;42.680;23.364;2023-07-13T08:40:49;22.33;;;9.27;;
5690;SDS011;2870;42.680;23.364;2023-07-13T08:43:19;16.07;;;9.13;;
5690;SDS011;2870;42.680;23.364;2023-07-13T08:45:53;19.23;;;9.17;;
5690;SDS011;2870;42.680;23.364;2023-07-13T08:48:26;28.03;;;8.80;;
5690;SDS011;2870;42.680;23.364;2023-07-13T08:50:57;14.97;;;8.80;;
5690;SDS011;2870;42.680;23.364;2023-07-13T08:53:25;14.10;;;7.87;;
5690;SDS011;2870;42.680;23.364;2023-07-13T08:56:00;15.37;;;8.53;;
5690;SDS011;2870;42.680;23.364;2023-07-13T08:58:27;18.53;;;9.23;;
5690;SDS011;2870;42.680;23.364;2023-07-13T09:00:58;21.17;;;8.80;;
5690;SDS011;2870;42.680;23.364;2023-07-13T09:03:35;17.30;;;8.90;;
5690;SDS011;2870;42.680;23.364;2023-07-13T09:06:13;17.90;;;8.33;;
5690;SDS011;2870;42.680;23.364;2023-07-13T09:08:47;15.80;;;8.07;;
5690;SDS011;2870;42.680;23.364;2023-07-13T09:11:25;15.30;;;8.17;;
5690;SDS011;2870;42.680;23.364;2023-07-13T09:14:05;18.50;;;9.10;;
5690;SDS011;2870;42.680;23.364;2023-07-13T09:16:46;15.53;;;9.30;;
5690;SDS011;2870;42.680;23.364;2023-07-13T09:19:16;11.10;;;7.73;;
5690;SDS011;2870;42.680;23.364;2023-07-13T09:21:49;15.77;;;8.07;;
5690;SDS011;2870;42.680;23.364;2023-07-13T09:24:27;25.57;;;9.00;;
5690;SDS011;2870;42.680;23.364;2023-07-13T09:26:57;12.33;;;8.30;;
5690;SDS011;2870;42.680;23.364;2023-07-13T09:29:26;20.80;;;7.73;;
5690;SDS011;2870;42.680;23.364;2023-07-13T09:31:58;13.10;;;7.23;;
5690;SDS011;2870;42.680;23.364;2023-07-13T09:34:30;14.50;;;7.50;;
5690;SDS011;2870;42.680;23.364;2023-07-13T09:36:59;17.93;;;8.07;;
5690;SDS011;2870;42.680;23.364;2023-07-13T09:39:27;13.63;;;7.60;;
5690;SDS011;2870;42.680;23.364;2023-07-13T09:41:57;21.43;;;8.17;;
5690;SDS011;2870;42.680;23.364;2023-07-13T09:44:33;29.07;;;8.57;;
5690;SDS011;2870;42.680;23.364;2023-07-13T09:47:03;17.77;;;7.80;;
5690;SDS011;2870;42.680;23.364;2023-07-13T09:49:33;12.53;;;8.57;;
5690;SDS011;2870;42.680;23.364;2023-07-13T09:52:03;27.53;;;8.30;;
5690;SDS011;2870;42.680;23.364;2023-07-13T09:54:32;14.70;;;7.90;;
5690;SDS011;2870;42.680;23.364;2023-07-13T09:57:01;26.13;;;7.20;;
5690;SDS011;2870;42.680;23.364;2023-07-13T09:59:29;12.33;;;7.77;;
5690;SDS011;2870;42.680;23.364;2023-07-13T10:01:57;11.57;;;7.90;;
5690;SDS011;2870;42.680;23.364;2023-07-13T10:04:30;20.70;;;8.10;;
5690;SDS011;2870;42.680;23.364;2023-07-13T10:07:05;20.73;;;7.73;;
5690;SDS011;2870;42.680;23.364;2023-07-13T10:09:33;10.73;;;7.93;;
5690;SDS011;2870;42.680;23.364;2023-07-13T10:12:00;17.73;;;7.90;;
5690;SDS011;2870;42.680;23.364;2023-07-13T10:14:27;13.73;;;7.97;;
5690;SDS011;2870;42.680;23.364;2023-07-13T10:16:57;20.73;;;7.77;;
5690;SDS011;2870;42.680;23.364;2023-07-13T10:19:29;12.10;;;7.40;;
5690;SDS011;2870;42.680;23.364;2023-07-13T10:21:59;15.90;;;7.70;;
5690;SDS011;2870;42.680;23.364;2023-07-13T10:24:29;11.93;;;8.17;;
5690;SDS011;2870;42.680;23.364;2023-07-13T10:27:00;21.80;;;6.70;;
5690;SDS011;2870;42.680;23.364;2023-07-13T10:29:37;14.17;;;6.77;;
5690;SDS011;2870;42.680;23.364;2023-07-13T10:32:08;14.00;;;6.90;;
5690;SDS011;2870;42.680;23.364;2023-07-13T10:34:38;15.23;;;7.07;;
5690;SDS011;2870;42.680;23.364;2023-07-13T10:37:07;11.63;;;5.63;;
5690;SDS011;2870;42.680;23.364;2023-07-13T10:39:40;13.13;;;5.13;;
5690;SDS011;2870;42.680;23.364;2023-07-13T10:42:08;12.67;;;5.07;;
5690;SDS011;2870;42.680;23.364;2023-07-13T10:44:40;11.70;;;5.03;;
5690;SDS011;2870;42.680;23.364;2023-07-13T10:47:08;7.93;;;4.03;;
5690;SDS011;2870;42.680;23.364;2023-07-13T10:49:41;23.33;;;4.03;;
5690;SDS011;2870;42.680;23.364;2023-07-13T10:55:30;12.80;;;4.67;;
5690;SDS011;2870;42.680;23.364;2023-07-13T10:57:59;9.60;;;4.87;;
5690;SDS011;2870;42.680;23.364;2023-07-13T11:00:30;10.07;;;4.53;;
5690;SDS011;2870;42.680;23.364;2023-07-13T11:02:59;14.13;;;4.90;;
5690;SDS011;2870;42.680;23.364;2023-07-13T11:05:30;8.37;;;4.67;;
5690;SDS011;2870;42.680;23.364;2023-07-13T11:08:03;14.37;;;5.00;;
5690;SDS011;2870;42.680;23.364;2023-07-13T11:10:47;8.97;;;5.53;;
5690;SDS011;2870;42.680;23.364;2023-07-13T11:16:09;9.30;;;4.63;;
5690;SDS011;2870;42.680;23.364;2023-07-13T11:18:39;11.20;;;4.37;;
5690;SDS011;2870;42.680;23.364;2023-07-13T11:21:18;14.33;;;4.90;;
5690;SDS011;2870;42.680;23.364;2023-07-13T11:23:51;14.20;;;5.00;;
5690;SDS011;2870;42.680;23.364;2023-07-13T11:26:38;11.23;;;5.13;;
5690;SDS011;2870;42.680;23.364;2023-07-13T11:29:08;7.73;;;4.60;;
5690;SDS011;2870;42.680;23.364;2023-07-13T11:31:36;14.80;;;4.50;;
5690;SDS011;2870;42.680;23.364;2023-07-13T11:34:06;13.33;;;4.90;;
5690;SDS011;2870;42.680;23.364;2023-07-13T11:36:42;15.47;;;5.43;;
5690;SDS011;2870;42.680;23.364;2023-07-13T11:39:13;11.10;;;4.50;;
5690;SDS011;2870;42.680;23.364;2023-07-13T11:41:45;9.80;;;5.47;;
5690;SDS011;2870;42.680;23.364;2023-07-13T11:44:18;9.50;;;4.87;;
5690;SDS011;2870;42.680;23.364;2023-07-13T11:46:49;9.13;;;4.50;;
5690;SDS011;2870;42.680;23.364;2023-07-13T11:49:17;9.63;;;5.27;;
5690;SDS011;2870;42.680;23.364;2023-07-13T11:51:46;10.67;;;4.77;;
5690;SDS011;2870;42.680;23.364;2023-07-13T11:54:22;9.17;;;4.80;;
5690;SDS011;2870;42.680;23.364;2023-07-13T11:56:51;10.10;;;4.80;;
5690;SDS011;2870;42.680;23.364;2023-07-13T11:59:19;15.10;;;5.87;;
5690;SDS011;2870;42.680;23.364;2023-07-13T12:01:47;12.50;;;5.33;;
5690;SDS011;2870;42.680;23.364;2023-07-13T12:04:19;12.47;;;5.60;;
5690;SDS011;2870;42.680;23.364;2023-07-13T12:06:54;10.20;;;6.30;;
5690;SDS011;2870;42.680;23.364;2023-07-13T12:09:25;13.10;;;6.03;;
5690;SDS011;2870;42.680;23.364;2023-07-13T12:11:55;10.93;;;6.17;;
5690;SDS011;2870;42.680;23.364;2023-07-13T12:14:23;12.70;;;5.70;;
5690;SDS011;2870;42.680;23.364;2023-07-13T12:16:51;10.17;;;5.00;;
5690;SDS011;2870;42.680;23.364;2023-07-13T12:19:20;14.67;;;5.53;;
5690;SDS011;2870;42.680;23.364;2023-07-13T12:21:48;15.27;;;5.77;;
5690;SDS011;2870;42.680;23.364;2023-07-13T12:24:18;8.90;;;4.33;;
5690;SDS011;2870;42.680;23.364;2023-07-13T12:26:50;9.10;;;4.50;;
5690;SDS011;2870;42.680;23.364;2023-07-13T12:29:18;7.67;;;4.43;;
5690;SDS011;2870;42.680;23.364;2023-07-13T12:31:45;14.83;;;5.10;;
5690;SDS011;2870;42.680;23.364;2023-07-13T12:34:14;9.70;;;4.53;;
5690;SDS011;2870;42.680;23.364;2023-07-13T12:36:45;10.27;;;5.27;;
5690;SDS011;2870;42.680;23.364;2023-07-13T12:39:15;11.83;;;4.97;;
5690;SDS011;2870;42.680;23.364;2023-07-13T12:41:46;10.77;;;4.70;;
5690;SDS011;2870;42.680;23.364;2023-07-13T12:44:15;12.23;;;4.70;;
5690;SDS011;2870;42.680;23.364;2023-07-13T12:46:52;13.83;;;4.50;;
5690;SDS011;2870;42.680;23.364;2023-07-13T12:49:24;15.57;;;4.67;;
5690;SDS011;2870;42.680;23.364;2023-07-13T12:51:57;13.80;;;4.80;;
5690;SDS011;2870;42.680;23.364;2023-07-13T12:54:28;11.57;;;5.47;;
5690;SDS011;2870;42.680;23.364;2023-07-13T12:56:56;15.50;;;4.57;;
5690;SDS011;2870;42.680;23.364;2023-07-13T12:59:29;10.03;;;4.70;;
5690;SDS011;2870;42.680;23.364;2023-07-13T13:01:58;11.27;;;4.77;;
5690;SDS011;2870;42.680;23.364;2023-07-13T13:04:25;16.33;;;5.00;;
5690;SDS011;2870;42.680;23.364;2023-07-13T13:07:00;14.40;;;5.90;;
5690;SDS011;2870;42.680;23.364;2023-07-13T13:09:29;17.87;;;6.57;;
5690;SDS011;2870;42.680;23.364;2023-07-13T13:11:56;19.40;;;6.37;;
5690;SDS011;2870;42.680;23.364;2023-07-13T13:14:23;18.70;;;6.20;;
5690;SDS011;2870;42.680;23.364;2023-07-13T13:16:50;19.57;;;6.43;;
5690;SDS011;2870;42.680;23.364;2023-07-13T13:19:20;14.23;;;6.00;;
5690;SDS011;2870;42.680;23.364;2023-07-13T13:21:49;15.93;;;6.77;;
5690;SDS011;2870;42.680;23.364;2023-07-13T13:24:18;16.63;;;6.47;;
5690;SDS011;2870;42.680;23.364;2023-07-13T13:26:48;12.73;;;5.87;;
5690;SDS011;2870;42.680;23.364;2023-07-13T13:29:17;10.70;;;6.10;;
5690;SDS011;2870;42.680;23.364;2023-07-13T13:31:45;14.60;;;5.63;;
5690;SDS011;2870;42.680;23.364;2023-07-13T13:34:14;12.80;;;5.60;;
5690;SDS011;2870;42.680;23.364;2023-07-13T13:36:42;15.40;;;5.60;;
5690;SDS011;2870;42.680;23.364;2023-07-13T13:39:20;14.50;;;6.13;;
5690;SDS011;2870;42.680;23.364;2023-07-13T13:41:51;14.80;;;5.87;;
5690;SDS011;2870;42.680;23.364;2023-07-13T13:44:20;14.00;;;6.30;;
5690;SDS011;2870;42.680;23.364;2023-07-13T13:46:50;16.23;;;5.27;;
5690;SDS011;2870;42.680;23.364;2023-07-13T13:49:19;15.67;;;5.70;;
5690;SDS011;2870;42.680;23.364;2023-07-13T13:51:49;17.20;;;5.67;;
5690;SDS011;2870;42.680;23.364;2023-07-13T13:54:17;13.37;;;5.17;;
5690;SDS011;2870;42.680;23.364;2023-07-13T13:56:46;17.33;;;5.80;;
5690;SDS011;2870;42.680;23.364;2023-07-13T13:59:15;13.90;;;5.23;;
5690;SDS011;2870;42.680;23.364;2023-07-13T14:01:42;8.63;;;4.00;;
5690;SDS011;2870;42.680;23.364;2023-07-13T14:04:13;11.60;;;4.60;;
5690;SDS011;2870;42.680;23.364;2023-07-13T14:06:42;16.80;;;4.80;;
5690;SDS011;2870;42.680;23.364;2023-07-13T14:09:10;15.50;;;4.93;;
5690;SDS011;2870;42.680;23.364;2023-07-13T14:11:39;11.63;;;5.07;;
5690;SDS011;2870;42.680;23.364;2023-07-13T14:14:09;12.67;;;5.40;;
5690;SDS011;2870;42.680;23.364;2023-07-13T14:16:42;12.20;;;5.00;;
5690;SDS011;2870;42.680;23.364;2023-07-13T14:19:10;16.73;;;6.10;;
5690;SDS011;2870;42.680;23.364;2023-07-13T14:21:39;18.23;;;6.10;;
5690;SDS011;2870;42.680;23.364;2023-07-13T14:24:06;19.50;;;4.80;;
5690;SDS011;2870;42.680;23.364;2023-07-13T14:26:35;9.37;;;4.73;;
5690;SDS011;2870;42.680;23.364;2023-07-13T14:29:05;14.63;;;5.10;;
5690;SDS011;2870;42.680;23.364;2023-07-13T14:31:40;9.93;;;4.80;;
5690;SDS011;2870;42.680;23.364;2023-07-13T14:34:08;12.80;;;4.93;;
5690;SDS011;2870;42.680;23.364;2023-07-13T14:36:37;10.40;;;5.10;;
5690;SDS011;2870;42.680;23.364;2023-07-13T14:39:09;9.70;;;4.83;;
5690;SDS011;2870;42.680;23.364;2023-07-13T14:41:38;16.17;;;5.03;;
5690;SDS011;2870;42.680;23.364;2023-07-13T14:44:10;15.23;;;5.07;;
5690;SDS011;2870;42.680;23.364;2023-07-13T14:46:38;11.27;;;4.80;;
5690;SDS011;2870;42.680;23.364;2023-07-13T14:49:07;18.83;;;5.27;;
5690;SDS011;2870;42.680;23.364;2023-07-13T14:51:41;13.07;;;4.40;;
5690;SDS011;2870;42.680;23.364;2023-07-13T14:54:08;15.07;;;4.70;;
5690;SDS011;2870;42.680;23.364;2023-07-13T14:56:36;14.60;;;5.03;;
5690;SDS011;2870;42.680;23.364;2023-07-13T14:59:03;11.43;;;4.67;;
5690;SDS011;2870;42.680;23.364;2023-07-13T15:01:32;15.13;;;4.77;;
5690;SDS011;2870;42.680;23.364;2023-07-13T15:03:59;16.20;;;5.23;;
5690;SDS011;2870;42.680;23.364;2023-07-13T15:06:28;14.20;;;6.30;;
5690;SDS011;2870;42.680;23.364;2023-07-13T15:08:56;11.33;;;4.17;;
5690;SDS011;2870;42.680;23.364;2023-07-13T15:11:23;13.37;;;4.93;;